sensor_id;sensor_type;location;lat;lon;timestamp;P1;durP1;ratioP1;P2;durP2;ratioP2
75220;SDS011;63802;53.232;6.570;2023-03-14T00:01:26;27.23;;;3.92;;
75220;SDS011;63802;53.232;6.570;2023-03-14T00:03:51;14.90;;;2.97;;
75220;SDS011;63802;53.232;6.570;2023-03-14T00:06:17;21.52;;;3.80;;
75220;SDS011;63802;53.232;6.570;2023-03-14T00:08:43;18.15;;;3.42;;
75220;SDS011;63802;53.232;6.570;2023-03-14T00:11:14;12.45;;;2.70;;
75220;SDS011;63802;53.232;6.570;2023-03-14T00:13:42;17.55;;;2.92;;
75220;SDS011;63802;53.232;6.570;2023-03-14T00:16:09;20.20;;;3.85;;
75220;SDS011;63802;53.232;6.570;2023-03-14T00:18:36;14.10;;;3.35;;
75220;SDS011;63802;53.232;6.570;2023-03-14T00:21:03;17.17;;;2.65;;
75220;SDS011;63802;53.232;6.570;2023-03-14T00:23:31;17.58;;;3.17;;
75220;SDS011;63802;53.232;6.570;2023-03-14T00:26:01;24.17;;;4.57;;
75220;SDS011;63802;53.232;6.570;2023-03-14T00:28:28;21.38;;;3.13;;
75220;SDS011;63802;53.232;6.570;2023-03-14T00:30:54;14.98;;;3.03;;
75220;SDS011;63802;53.232;6.570;2023-03-14T00:33:20;18.10;;;3.30;;
75220;SDS011;63802;53.232;6.570;2023-03-14T00:35:53;11.07;;;3.05;;
75220;SDS011;63802;53.232;6.570;2023-03-14T00:40:52;19.83;;;3.00;;
75220;SDS011;63802;53.232;6.570;2023-03-14T00:43:20;13.27;;;2.87;;
75220;SDS011;63802;53.232;6.570;2023-03-14T00:45:47;14.68;;;3.00;;
75220;SDS011;63802;53.232;6.570;2023-03-14T00:48:17;17.77;;;2.80;;
75220;SDS011;63802;53.232;6.570;2023-03-14T00:50:44;14.95;;;2.38;;
75220;SDS011;63802;53.232;6.570;2023-03-14T00:53:10;28.55;;;3.72;;
75220;SDS011;63802;53.232;6.570;2023-03-14T00:55:37;15.70;;;2.90;;
75220;SDS011;63802;53.232;6.570;2023-03-14T00:58:04;20.25;;;2.97;;
75220;SDS011;63802;53.232;6.570;2023-03-14T01:00:29;13.52;;;2.53;;
75220;SDS011;63802;53.232;6.570;2023-03-14T01:02:55;14.27;;;2.88;;
75220;SDS011;63802;53.232;6.570;2023-03-14T01:05:21;14.35;;;2.78;;
75220;SDS011;63802;53.232;6.570;2023-03-14T01:07:47;11.20;;;3.42;;
75220;SDS011;63802;53.232;6.570;2023-03-14T01:10:13;17.55;;;2.92;;
75220;SDS011;63802;53.232;6.570;2023-03-14T01:12:38;11.15;;;2.42;;
75220;SDS011;63802;53.232;6.570;2023-03-14T01:15:04;9.63;;;2.33;;
75220;SDS011;63802;53.232;6.570;2023-03-14T01:17:30;12.38;;;2.35;;
75220;SDS011;63802;53.232;6.570;2023-03-14T01:19:56;13.73;;;3.00;;
75220;SDS011;63802;53.232;6.570;2023-03-14T01:22:21;12.43;;;2.47;;
75220;SDS011;63802;53.232;6.570;2023-03-14T01:24:47;18.48;;;2.38;;
75220;SDS011;63802;53.232;6.570;2023-03-14T01:27:15;14.60;;;2.40;;
75220;SDS011;63802;53.232;6.570;2023-03-14T01:29:41;15.52;;;3.15;;
75220;SDS011;63802;53.232;6.570;2023-03-14T01:32:06;13.07;;;2.38;;
75220;SDS011;63802;53.232;6.570;2023-03-14T01:34:31;10.30;;;1.98;;
75220;SDS011;63802;53.232;6.570;2023-03-14T01:36:57;16.85;;;2.45;;
75220;SDS011;63802;53.232;6.570;2023-03-14T01:39:22;18.00;;;2.67;;
75220;SDS011;63802;53.232;6.570;2023-03-14T01:41:48;8.07;;;2.40;;
75220;SDS011;63802;53.232;6.570;2023-03-14T01:44:13;13.88;;;2.30;;
75220;SDS011;63802;53.232;6.570;2023-03-14T01:46:40;13.15;;;2.88;;
75220;SDS011;63802;53.232;6.570;2023-03-14T01:52:31;11.60;;;2.55;;
75220;SDS011;63802;53.232;6.570;2023-03-14T01:55:07;18.17;;;2.55;;
75220;SDS011;63802;53.232;6.570;2023-03-14T01:57:50;12.82;;;3.03;;
75220;SDS011;63802;53.232;6.570;2023-03-14T02:00:26;16.02;;;2.65;;
75220;SDS011;63802;53.232;6.570;2023-03-14T02:02:55;15.48;;;2.95;;
75220;SDS011;63802;53.232;6.570;2023-03-14T02:05:27;12.98;;;2.33;;
75220;SDS011;63802;53.232;6.570;2023-03-14T02:07:59;13.82;;;2.05;;
75220;SDS011;63802;53.232;6.570;2023-03-14T02:10:31;17.88;;;2.65;;
75220;SDS011;63802;53.232;6.570;2023-03-14T02:13:02;9.55;;;2.40;;
75220;SDS011;63802;53.232;6.570;2023-03-14T02:15:29;10.65;;;2.17;;
75220;SDS011;63802;53.232;6.570;2023-03-14T02:17:55;12.57;;;1.88;;
75220;SDS011;63802;53.232;6.570;2023-03-14T02:22:55;9.48;;;2.50;;
75220;SDS011;63802;53.232;6.570;2023-03-14T02:28:11;8.63;;;2.33;;
75220;SDS011;63802;53.232;6.570;2023-03-14T02:30:38;12.20;;;1.85;;
75220;SDS011;63802;53.232;6.570;2023-03-14T02:35:35;11.13;;;1.70;;
75220;SDS011;63802;53.232;6.570;2023-03-14T02:38:32;9.00;;;2.67;;
75220;SDS011;63802;53.232;6.570;2023-03-14T02:41:10;13.65;;;2.47;;
75220;SDS011;63802;53.232;6.570;2023-03-14T02:43:36;14.25;;;2.05;;
75220;SDS011;63802;53.232;6.570;2023-03-14T02:46:01;14.15;;;2.28;;
75220;SDS011;63802;53.232;6.570;2023-03-14T02:48:38;12.88;;;2.40;;
75220;SDS011;63802;53.232;6.570;2023-03-14T02:51:08;11.60;;;2.08;;
75220;SDS011;63802;53.232;6.570;2023-03-14T02:53:35;11.38;;;2.22;;
75220;SDS011;63802;53.232;6.570;2023-03-14T02:56:02;10.93;;;2.15;;
75220;SDS011;63802;53.232;6.570;2023-03-14T02:58:29;8.63;;;2.00;;
75220;SDS011;63802;53.232;6.570;2023-03-14T03:00:55;9.48;;;2.30;;
75220;SDS011;63802;53.232;6.570;2023-03-14T03:03:21;12.50;;;2.22;;
75220;SDS011;63802;53.232;6.570;2023-03-14T03:05:50;10.38;;;2.53;;
75220;SDS011;63802;53.232;6.570;2023-03-14T03:08:18;6.90;;;1.90;;
75220;SDS011;63802;53.232;6.570;2023-03-14T03:10:45;7.93;;;2.15;;
75220;SDS011;63802;53.232;6.570;2023-03-14T03:13:10;10.50;;;3.50;;
75220;SDS011;63802;53.232;6.570;2023-03-14T03:15:36;10.25;;;2.80;;
75220;SDS011;63802;53.232;6.570;2023-03-14T03:18:02;7.97;;;2.45;;
75220;SDS011;63802;53.232;6.570;2023-03-14T03:20:27;15.18;;;3.25;;
75220;SDS011;63802;53.232;6.570;2023-03-14T03:22:53;11.57;;;2.65;;
75220;SDS011;63802;53.232;6.570;2023-03-14T03:25:18;13.25;;;2.45;;
75220;SDS011;63802;53.232;6.570;2023-03-14T03:27:44;9.25;;;2.55;;
75220;SDS011;63802;53.232;6.570;2023-03-14T03:30:12;9.23;;;2.95;;
75220;SDS011;63802;53.232;6.570;2023-03-14T03:32:37;8.38;;;2.83;;
75220;SDS011;63802;53.232;6.570;2023-03-14T03:35:03;8.98;;;3.03;;
75220;SDS011;63802;53.232;6.570;2023-03-14T03:37:30;13.43;;;3.08;;
75220;SDS011;63802;53.232;6.570;2023-03-14T03:39:56;9.70;;;2.95;;
75220;SDS011;63802;53.232;6.570;2023-03-14T03:42:21;9.60;;;2.70;;
75220;SDS011;63802;53.232;6.570;2023-03-14T03:44:49;12.77;;;3.00;;
75220;SDS011;63802;53.232;6.570;2023-03-14T03:47:15;10.82;;;2.95;;
75220;SDS011;63802;53.232;6.570;2023-03-14T03:49:41;11.55;;;3.17;;
75220;SDS011;63802;53.232;6.570;2023-03-14T03:52:12;9.57;;;2.85;;
75220;SDS011;63802;53.232;6.570;2023-03-14T03:54:37;9.27;;;2.83;;
75220;SDS011;63802;53.232;6.570;2023-03-14T03:57:03;8.02;;;2.80;;
75220;SDS011;63802;53.232;6.570;2023-03-14T03:59:28;12.63;;;3.22;;
75220;SDS011;63802;53.232;6.570;2023-03-14T04:01:54;12.52;;;3.40;;
75220;SDS011;63802;53.232;6.570;2023-03-14T04:04:19;20.33;;;4.00;;
75220;SDS011;63802;53.232;6.570;2023-03-14T04:06:44;12.45;;;3.38;;
75220;SDS011;63802;53.232;6.570;2023-03-14T04:09:10;17.33;;;3.40;;
75220;SDS011;63802;53.232;6.570;2023-03-14T04:11:36;13.77;;;3.47;;
75220;SDS011;63802;53.232;6.570;2023-03-14T04:14:02;20.05;;;4.05;;
75220;SDS011;63802;53.232;6.570;2023-03-14T04:16:28;14.80;;;3.28;;
75220;SDS011;63802;53.232;6.570;2023-03-14T04:18:56;24.77;;;4.60;;
75220;SDS011;63802;53.232;6.570;2023-03-14T04:21:22;15.85;;;3.72;;
75220;SDS011;63802;53.232;6.570;2023-03-14T04:23:48;19.67;;;3.63;;
75220;SDS011;63802;53.232;6.570;2023-03-14T04:26:14;15.65;;;3.95;;
75220;SDS011;63802;53.232;6.570;2023-03-14T04:28:40;22.98;;;3.80;;
75220;SDS011;63802;53.232;6.570;2023-03-14T04:31:17;18.15;;;4.22;;
75220;SDS011;63802;53.232;6.570;2023-03-14T04:33:44;16.23;;;4.60;;
75220;SDS011;63802;53.232;6.570;2023-03-14T04:36:10;17.83;;;4.57;;
75220;SDS011;63802;53.232;6.570;2023-03-14T04:38:36;12.98;;;3.75;;
75220;SDS011;63802;53.232;6.570;2023-03-14T04:41:01;15.52;;;4.07;;
75220;SDS011;63802;53.232;6.570;2023-03-14T04:43:27;16.33;;;4.55;;
75220;SDS011;63802;53.232;6.570;2023-03-14T04:45:53;23.00;;;4.68;;
75220;SDS011;63802;53.232;6.570;2023-03-14T04:48:19;12.07;;;4.20;;
75220;SDS011;63802;53.232;6.570;2023-03-14T04:50:46;13.95;;;4.75;;
75220;SDS011;63802;53.232;6.570;2023-03-14T04:53:15;20.15;;;6.03;;
75220;SDS011;63802;53.232;6.570;2023-03-14T04:55:41;14.57;;;4.95;;
75220;SDS011;63802;53.232;6.570;2023-03-14T04:58:07;20.95;;;5.32;;
75220;SDS011;63802;53.232;6.570;2023-03-14T05:00:32;19.27;;;5.10;;
75220;SDS011;63802;53.232;6.570;2023-03-14T05:02:58;15.63;;;5.25;;
75220;SDS011;63802;53.232;6.570;2023-03-14T05:05:26;14.75;;;5.70;;
75220;SDS011;63802;53.232;6.570;2023-03-14T05:07:52;12.35;;;5.07;;
75220;SDS011;63802;53.232;6.570;2023-03-14T05:10:17;14.73;;;5.22;;
75220;SDS011;63802;53.232;6.570;2023-03-14T05:12:42;20.00;;;5.38;;
75220;SDS011;63802;53.232;6.570;2023-03-14T05:15:08;18.10;;;5.28;;
75220;SDS011;63802;53.232;6.570;2023-03-14T05:17:34;17.58;;;5.30;;
75220;SDS011;63802;53.232;6.570;2023-03-14T05:20:00;17.33;;;5.25;;
75220;SDS011;63802;53.232;6.570;2023-03-14T05:22:25;17.70;;;5.25;;
75220;SDS011;63802;53.232;6.570;2023-03-14T05:24:51;15.07;;;5.20;;
75220;SDS011;63802;53.232;6.570;2023-03-14T05:29:47;16.65;;;4.75;;
75220;SDS011;63802;53.232;6.570;2023-03-14T05:32:12;17.38;;;4.63;;
75220;SDS011;63802;53.232;6.570;2023-03-14T05:34:38;14.13;;;4.72;;
75220;SDS011;63802;53.232;6.570;2023-03-14T05:37:03;15.23;;;4.40;;
75220;SDS011;63802;53.232;6.570;2023-03-14T05:39:28;16.63;;;4.78;;
75220;SDS011;63802;53.232;6.570;2023-03-14T05:41:54;15.98;;;4.18;;
75220;SDS011;63802;53.232;6.570;2023-03-14T05:44:21;17.50;;;5.00;;
75220;SDS011;63802;53.232;6.570;2023-03-14T05:46:46;19.00;;;4.68;;
75220;SDS011;63802;53.232;6.570;2023-03-14T05:49:12;16.05;;;4.72;;
75220;SDS011;63802;53.232;6.570;2023-03-14T05:51:37;11.13;;;3.70;;
75220;SDS011;63802;53.232;6.570;2023-03-14T05:54:02;17.15;;;4.05;;
75220;SDS011;63802;53.232;6.570;2023-03-14T05:56:28;12.30;;;3.97;;
75220;SDS011;63802;53.232;6.570;2023-03-14T05:58:53;14.23;;;3.97;;
75220;SDS011;63802;53.232;6.570;2023-03-14T06:01:18;15.05;;;4.07;;
75220;SDS011;63802;53.232;6.570;2023-03-14T06:03:44;10.88;;;3.55;;
75220;SDS011;63802;53.232;6.570;2023-03-14T06:06:09;11.73;;;3.67;;
75220;SDS011;63802;53.232;6.570;2023-03-14T06:08:35;9.30;;;3.40;;
75220;SDS011;63802;53.232;6.570;2023-03-14T06:11:02;8.27;;;3.03;;
75220;SDS011;63802;53.232;6.570;2023-03-14T06:13:28;8.85;;;3.05;;
75220;SDS011;63802;53.232;6.570;2023-03-14T06:15:53;7.90;;;3.10;;
75220;SDS011;63802;53.232;6.570;2023-03-14T06:18:19;7.00;;;2.65;;
75220;SDS011;63802;53.232;6.570;2023-03-14T06:20:45;6.60;;;2.70;;
75220;SDS011;63802;53.232;6.570;2023-03-14T06:23:10;9.23;;;2.95;;
75220;SDS011;63802;53.232;6.570;2023-03-14T06:25:36;7.45;;;2.30;;
75220;SDS011;63802;53.232;6.570;2023-03-14T06:28:02;2.78;;;1.58;;
75220;SDS011;63802;53.232;6.570;2023-03-14T06:30:28;2.55;;;1.45;;
75220;SDS011;63802;53.232;6.570;2023-03-14T06:32:53;6.25;;;0.88;;
75220;SDS011;63802;53.232;6.570;2023-03-14T06:35:20;6.00;;;1.00;;
75220;SDS011;63802;53.232;6.570;2023-03-14T06:37:46;10.43;;;1.60;;
75220;SDS011;63802;53.232;6.570;2023-03-14T06:40:12;14.70;;;1.80;;
75220;SDS011;63802;53.232;6.570;2023-03-14T06:42:42;19.70;;;1.90;;
75220;SDS011;63802;53.232;6.570;2023-03-14T06:45:08;14.70;;;1.83;;
75220;SDS011;63802;53.232;6.570;2023-03-14T06:47:34;12.45;;;1.40;;
75220;SDS011;63802;53.232;6.570;2023-03-14T06:49:59;10.23;;;1.67;;
75220;SDS011;63802;53.232;6.570;2023-03-14T06:52:25;7.97;;;1.30;;
75220;SDS011;63802;53.232;6.570;2023-03-14T06:54:50;7.97;;;1.90;;
75220;SDS011;63802;53.232;6.570;2023-03-14T06:57:16;5.78;;;1.45;;
75220;SDS011;63802;53.232;6.570;2023-03-14T06:59:41;10.60;;;1.50;;
75220;SDS011;63802;53.232;6.570;2023-03-14T07:02:10;14.25;;;2.05;;
75220;SDS011;63802;53.232;6.570;2023-03-14T07:04:40;13.70;;;1.98;;
75220;SDS011;63802;53.232;6.570;2023-03-14T07:07:06;6.63;;;1.35;;
75220;SDS011;63802;53.232;6.570;2023-03-14T07:09:31;7.07;;;0.90;;
75220;SDS011;63802;53.232;6.570;2023-03-14T07:11:57;7.72;;;1.20;;
75220;SDS011;63802;53.232;6.570;2023-03-14T07:14:23;14.27;;;1.13;;
75220;SDS011;63802;53.232;6.570;2023-03-14T07:16:48;7.68;;;0.93;;
75220;SDS011;63802;53.232;6.570;2023-03-14T07:19:14;3.13;;;0.60;;
75220;SDS011;63802;53.232;6.570;2023-03-14T07:21:39;5.57;;;0.60;;
75220;SDS011;63802;53.232;6.570;2023-03-14T07:24:05;5.60;;;0.50;;
75220;SDS011;63802;53.232;6.570;2023-03-14T07:26:30;6.30;;;0.80;;
75220;SDS011;63802;53.232;6.570;2023-03-14T07:28:56;4.15;;;0.77;;
75220;SDS011;63802;53.232;6.570;2023-03-14T07:31:22;3.55;;;1.60;;
75220;SDS011;63802;53.232;6.570;2023-03-14T07:33:47;3.78;;;0.55;;
75220;SDS011;63802;53.232;6.570;2023-03-14T07:36:13;9.00;;;1.08;;
75220;SDS011;63802;53.232;6.570;2023-03-14T07:38:39;2.05;;;0.40;;
75220;SDS011;63802;53.232;6.570;2023-03-14T07:41:05;2.92;;;0.57;;
75220;SDS011;63802;53.232;6.570;2023-03-14T07:43:31;5.72;;;0.57;;
75220;SDS011;63802;53.232;6.570;2023-03-14T07:45:57;4.50;;;0.70;;
75220;SDS011;63802;53.232;6.570;2023-03-14T07:48:23;2.25;;;0.43;;
75220;SDS011;63802;53.232;6.570;2023-03-14T07:50:51;3.08;;;0.50;;
75220;SDS011;63802;53.232;6.570;2023-03-14T07:53:18;4.57;;;0.77;;
75220;SDS011;63802;53.232;6.570;2023-03-14T07:55:43;3.50;;;0.45;;
75220;SDS011;63802;53.232;6.570;2023-03-14T07:58:10;3.47;;;0.75;;
75220;SDS011;63802;53.232;6.570;2023-03-14T08:00:35;1.65;;;0.35;;
75220;SDS011;63802;53.232;6.570;2023-03-14T08:03:00;2.88;;;0.55;;
75220;SDS011;63802;53.232;6.570;2023-03-14T08:05:26;3.55;;;0.73;;
75220;SDS011;63802;53.232;6.570;2023-03-14T08:07:51;1.90;;;0.50;;
75220;SDS011;63802;53.232;6.570;2023-03-14T08:10:17;1.17;;;0.38;;
75220;SDS011;63802;53.232;6.570;2023-03-14T08:12:49;3.83;;;0.52;;
75220;SDS011;63802;53.232;6.570;2023-03-14T08:15:15;2.55;;;0.40;;
75220;SDS011;63802;53.232;6.570;2023-03-14T08:17:40;5.85;;;0.93;;
75220;SDS011;63802;53.232;6.570;2023-03-14T08:20:06;3.80;;;0.40;;
75220;SDS011;63802;53.232;6.570;2023-03-14T08:22:33;4.05;;;0.52;;
75220;SDS011;63802;53.232;6.570;2023-03-14T08:24:58;6.15;;;0.98;;
75220;SDS011;63802;53.232;6.570;2023-03-14T08:27:24;2.85;;;0.70;;
75220;SDS011;63802;53.232;6.570;2023-03-14T08:29:49;8.00;;;0.95;;
75220;SDS011;63802;53.232;6.570;2023-03-14T08:32:16;5.95;;;0.70;;
75220;SDS011;63802;53.232;6.570;2023-03-14T08:34:41;2.83;;;0.65;;
75220;SDS011;63802;53.232;6.570;2023-03-14T08:37:07;6.63;;;0.73;;
75220;SDS011;63802;53.232;6.570;2023-03-14T08:39:32;7.55;;;0.93;;
75220;SDS011;63802;53.232;6.570;2023-03-14T08:41:58;19.98;;;1.88;;
75220;SDS011;63802;53.232;6.570;2023-03-14T08:44:23;10.07;;;1.10;;
75220;SDS011;63802;53.232;6.570;2023-03-14T08:46:49;8.25;;;1.50;;
75220;SDS011;63802;53.232;6.570;2023-03-14T08:49:14;12.30;;;1.60;;
75220;SDS011;63802;53.232;6.570;2023-03-14T08:51:39;9.63;;;1.42;;
75220;SDS011;63802;53.232;6.570;2023-03-14T08:54:05;8.25;;;1.42;;
75220;SDS011;63802;53.232;6.570;2023-03-14T08:56:31;8.93;;;1.63;;
75220;SDS011;63802;53.232;6.570;2023-03-14T08:58:56;12.68;;;1.63;;
75220;SDS011;63802;53.232;6.570;2023-03-14T09:01:21;13.10;;;2.40;;
75220;SDS011;63802;53.232;6.570;2023-03-14T09:03:50;14.95;;;1.63;;
75220;SDS011;63802;53.232;6.570;2023-03-14T09:06:16;12.32;;;2.28;;
75220;SDS011;63802;53.232;6.570;2023-03-14T09:08:44;12.07;;;1.52;;
75220;SDS011;63802;53.232;6.570;2023-03-14T09:11:10;8.82;;;1.40;;
75220;SDS011;63802;53.232;6.570;2023-03-14T09:13:35;15.25;;;1.98;;
75220;SDS011;63802;53.232;6.570;2023-03-14T09:16:01;10.82;;;1.95;;
75220;SDS011;63802;53.232;6.570;2023-03-14T09:18:26;10.20;;;1.60;;
75220;SDS011;63802;53.232;6.570;2023-03-14T09:20:52;19.00;;;2.38;;
75220;SDS011;63802;53.232;6.570;2023-03-14T09:23:18;15.93;;;1.98;;
75220;SDS011;63802;53.232;6.570;2023-03-14T09:25:43;11.40;;;1.95;;
75220;SDS011;63802;53.232;6.570;2023-03-14T09:28:08;14.25;;;2.10;;
75220;SDS011;63802;53.232;6.570;2023-03-14T09:30:34;14.70;;;2.35;;
75220;SDS011;63802;53.232;6.570;2023-03-14T09:32:59;12.68;;;2.40;;
75220;SDS011;63802;53.232;6.570;2023-03-14T09:35:25;10.40;;;2.53;;
75220;SDS011;63802;53.232;6.570;2023-03-14T09:37:51;10.63;;;1.63;;
75220;SDS011;63802;53.232;6.570;2023-03-14T09:40:17;16.60;;;2.20;;
75220;SDS011;63802;53.232;6.570;2023-03-14T09:42:45;9.77;;;1.80;;
75220;SDS011;63802;53.232;6.570;2023-03-14T09:48:16;17.95;;;2.40;;
75220;SDS011;63802;53.232;6.570;2023-03-14T09:50:47;12.77;;;1.35;;
75220;SDS011;63802;53.232;6.570;2023-03-14T09:53:19;16.70;;;2.20;;
75220;SDS011;63802;53.232;6.570;2023-03-14T09:55:49;15.40;;;2.17;;
75220;SDS011;63802;53.232;6.570;2023-03-14T09:58:18;12.98;;;1.75;;
75220;SDS011;63802;53.232;6.570;2023-03-14T10:00:45;8.55;;;2.03;;
75220;SDS011;63802;53.232;6.570;2023-03-14T10:05:37;10.75;;;1.92;;
75220;SDS011;63802;53.232;6.570;2023-03-14T10:08:04;18.08;;;2.30;;
75220;SDS011;63802;53.232;6.570;2023-03-14T10:10:30;21.08;;;2.65;;
75220;SDS011;63802;53.232;6.570;2023-03-14T10:12:58;13.48;;;2.25;;
75220;SDS011;63802;53.232;6.570;2023-03-14T10:15:30;12.32;;;2.25;;
75220;SDS011;63802;53.232;6.570;2023-03-14T10:18:00;4.80;;;1.30;;
75220;SDS011;63802;53.232;6.570;2023-03-14T10:23:04;10.43;;;1.77;;
75220;SDS011;63802;53.232;6.570;2023-03-14T10:25:33;11.10;;;1.60;;
75220;SDS011;63802;53.232;6.570;2023-03-14T10:28:00;11.73;;;1.63;;
75220;SDS011;63802;53.232;6.570;2023-03-14T10:33:31;10.20;;;1.80;;
75220;SDS011;63802;53.232;6.570;2023-03-14T10:35:58;10.50;;;1.67;;
75220;SDS011;63802;53.232;6.570;2023-03-14T10:38:27;11.00;;;2.13;;
75220;SDS011;63802;53.232;6.570;2023-03-14T10:40:57;12.18;;;1.88;;
75220;SDS011;63802;53.232;6.570;2023-03-14T10:43:28;11.38;;;1.40;;
75220;SDS011;63802;53.232;6.570;2023-03-14T10:45:58;9.13;;;1.67;;
75220;SDS011;63802;53.232;6.570;2023-03-14T10:53:45;15.48;;;2.85;;
75220;SDS011;63802;53.232;6.570;2023-03-14T10:56:20;9.98;;;1.73;;
75220;SDS011;63802;53.232;6.570;2023-03-14T10:58:48;7.85;;;1.60;;
75220;SDS011;63802;53.232;6.570;2023-03-14T11:09:33;8.32;;;1.20;;
75220;SDS011;63802;53.232;6.570;2023-03-14T11:12:08;8.40;;;1.52;;
75220;SDS011;63802;53.232;6.570;2023-03-14T11:14:56;6.43;;;1.25;;
75220;SDS011;63802;53.232;6.570;2023-03-14T11:23:25;5.55;;;1.00;;
75220;SDS011;63802;53.232;6.570;2023-03-14T11:28:50;8.50;;;1.63;;
75220;SDS011;63802;53.232;6.570;2023-03-14T11:31:28;6.78;;;0.88;;
75220;SDS011;63802;53.232;6.570;2023-03-14T11:36:33;2.45;;;0.95;;
75220;SDS011;63802;53.232;6.570;2023-03-14T11:39:08;3.17;;;0.90;;
75220;SDS011;63802;53.232;6.570;2023-03-14T11:41:39;4.38;;;1.02;;
75220;SDS011;63802;53.232;6.570;2023-03-14T11:47:05;6.85;;;0.95;;
75220;SDS011;63802;53.232;6.570;2023-03-14T11:49:38;5.15;;;0.80;;
75220;SDS011;63802;53.232;6.570;2023-03-14T11:52:30;7.32;;;1.33;;
75220;SDS011;63802;53.232;6.570;2023-03-14T11:57:44;3.75;;;0.95;;
75220;SDS011;63802;53.232;6.570;2023-03-14T12:00:16;7.15;;;1.17;;
75220;SDS011;63802;53.232;6.570;2023-03-14T12:10:39;8.55;;;1.27;;
75220;SDS011;63802;53.232;6.570;2023-03-14T12:13:10;8.40;;;1.10;;
75220;SDS011;63802;53.232;6.570;2023-03-14T12:15:39;9.88;;;1.73;;
75220;SDS011;63802;53.232;6.570;2023-03-14T12:21:00;2.78;;;1.23;;
75220;SDS011;63802;53.232;6.570;2023-03-14T12:23:34;5.60;;;1.30;;
75220;SDS011;63802;53.232;6.570;2023-03-14T12:26:12;9.80;;;1.17;;
75220;SDS011;63802;53.232;6.570;2023-03-14T12:28:48;7.85;;;1.75;;
75220;SDS011;63802;53.232;6.570;2023-03-14T12:31:47;8.95;;;1.50;;
75220;SDS011;63802;53.232;6.570;2023-03-14T12:34:44;4.70;;;0.85;;
75220;SDS011;63802;53.232;6.570;2023-03-14T12:37:23;5.53;;;1.73;;
75220;SDS011;63802;53.232;6.570;2023-03-14T12:40:13;6.85;;;1.33;;
75220;SDS011;63802;53.232;6.570;2023-03-14T12:42:56;8.35;;;2.30;;
75220;SDS011;63802;53.232;6.570;2023-03-14T12:45:31;4.40;;;1.40;;
75220;SDS011;63802;53.232;6.570;2023-03-14T12:53:30;6.38;;;1.10;;
75220;SDS011;63802;53.232;6.570;2023-03-14T13:04:44;4.40;;;1.00;;
75220;SDS011;63802;53.232;6.570;2023-03-14T13:10:04;3.92;;;1.10;;
75220;SDS011;63802;53.232;6.570;2023-03-14T13:12:48;5.88;;;1.15;;
75220;SDS011;63802;53.232;6.570;2023-03-14T13:15:33;6.28;;;1.42;;
75220;SDS011;63802;53.232;6.570;2023-03-14T13:18:09;4.97;;;0.85;;
75220;SDS011;63802;53.232;6.570;2023-03-14T13:20:36;5.20;;;1.40;;
75220;SDS011;63802;53.232;6.570;2023-03-14T13:25:43;4.53;;;1.08;;
75220;SDS011;63802;53.232;6.570;2023-03-14T13:28:10;8.75;;;0.90;;
75220;SDS011;63802;53.232;6.570;2023-03-14T13:30:40;4.38;;;1.23;;
75220;SDS011;63802;53.232;6.570;2023-03-14T13:33:11;2.22;;;0.73;;
75220;SDS011;63802;53.232;6.570;2023-03-14T13:35:42;8.25;;;1.00;;
75220;SDS011;63802;53.232;6.570;2023-03-14T13:38:20;9.73;;;1.55;;
75220;SDS011;63802;53.232;6.570;2023-03-14T13:40:51;8.85;;;1.33;;
75220;SDS011;63802;53.232;6.570;2023-03-14T13:43:33;9.63;;;1.23;;
75220;SDS011;63802;53.232;6.570;2023-03-14T13:46:07;4.95;;;0.85;;
75220;SDS011;63802;53.232;6.570;2023-03-14T13:48:43;6.85;;;1.25;;
75220;SDS011;63802;53.232;6.570;2023-03-14T13:51:12;4.53;;;1.30;;
75220;SDS011;63802;53.232;6.570;2023-03-14T13:53:45;3.67;;;1.17;;
75220;SDS011;63802;53.232;6.570;2023-03-14T13:56:12;11.98;;;1.40;;
75220;SDS011;63802;53.232;6.570;2023-03-14T13:58:41;9.00;;;1.48;;
75220;SDS011;63802;53.232;6.570;2023-03-14T14:01:12;8.13;;;1.80;;
75220;SDS011;63802;53.232;6.570;2023-03-14T14:03:42;7.40;;;1.52;;
75220;SDS011;63802;53.232;6.570;2023-03-14T14:06:25;10.77;;;1.92;;
75220;SDS011;63802;53.232;6.570;2023-03-14T14:09:08;7.55;;;1.25;;
75220;SDS011;63802;53.232;6.570;2023-03-14T14:14:35;4.40;;;0.90;;
75220;SDS011;63802;53.232;6.570;2023-03-14T14:17:03;8.18;;;1.17;;
75220;SDS011;63802;53.232;6.570;2023-03-14T14:19:33;3.17;;;0.93;;
75220;SDS011;63802;53.232;6.570;2023-03-14T14:22:01;11.43;;;1.48;;
75220;SDS011;63802;53.232;6.570;2023-03-14T14:24:29;3.83;;;1.05;;
75220;SDS011;63802;53.232;6.570;2023-03-14T14:27:00;12.05;;;1.30;;
75220;SDS011;63802;53.232;6.570;2023-03-14T14:29:33;9.23;;;1.42;;
75220;SDS011;63802;53.232;6.570;2023-03-14T14:32:00;9.57;;;1.23;;
75220;SDS011;63802;53.232;6.570;2023-03-14T14:34:38;6.30;;;0.85;;
75220;SDS011;63802;53.232;6.570;2023-03-14T14:37:05;5.88;;;0.82;;
75220;SDS011;63802;53.232;6.570;2023-03-14T14:39:40;4.38;;;1.15;;
75220;SDS011;63802;53.232;6.570;2023-03-14T14:42:15;10.70;;;1.50;;
75220;SDS011;63802;53.232;6.570;2023-03-14T14:44:42;4.53;;;1.20;;
75220;SDS011;63802;53.232;6.570;2023-03-14T14:47:15;6.78;;;1.15;;
75220;SDS011;63802;53.232;6.570;2023-03-14T14:49:45;7.90;;;1.40;;
75220;SDS011;63802;53.232;6.570;2023-03-14T14:52:13;6.65;;;1.10;;
75220;SDS011;63802;53.232;6.570;2023-03-14T14:54:44;5.80;;;1.27;;
75220;SDS011;63802;53.232;6.570;2023-03-14T14:59:48;10.02;;;1.77;;
75220;SDS011;63802;53.232;6.570;2023-03-14T15:05:23;5.75;;;1.13;;
75220;SDS011;63802;53.232;6.570;2023-03-14T15:07:51;14.45;;;2.10;;
75220;SDS011;63802;53.232;6.570;2023-03-14T15:10:18;2.08;;;0.85;;
75220;SDS011;63802;53.232;6.570;2023-03-14T15:12:45;6.70;;;1.02;;
75220;SDS011;63802;53.232;6.570;2023-03-14T15:15:12;4.90;;;0.82;;
75220;SDS011;63802;53.232;6.570;2023-03-14T15:17:38;3.22;;;0.98;;
75220;SDS011;63802;53.232;6.570;2023-03-14T15:20:10;3.75;;;0.70;;
75220;SDS011;63802;53.232;6.570;2023-03-14T15:22:38;5.95;;;0.93;;
75220;SDS011;63802;53.232;6.570;2023-03-14T15:25:04;4.20;;;0.82;;
75220;SDS011;63802;53.232;6.570;2023-03-14T15:27:30;3.30;;;1.05;;
75220;SDS011;63802;53.232;6.570;2023-03-14T15:29:57;4.32;;;0.90;;
75220;SDS011;63802;53.232;6.570;2023-03-14T15:32:23;2.75;;;0.75;;
75220;SDS011;63802;53.232;6.570;2023-03-14T15:34:49;5.03;;;1.05;;
75220;SDS011;63802;53.232;6.570;2023-03-14T15:37:15;6.90;;;1.20;;
75220;SDS011;63802;53.232;6.570;2023-03-14T15:39:42;5.93;;;1.33;;
75220;SDS011;63802;53.232;6.570;2023-03-14T15:42:08;9.27;;;1.35;;
75220;SDS011;63802;53.232;6.570;2023-03-14T15:44:34;8.57;;;1.13;;
75220;SDS011;63802;53.232;6.570;2023-03-14T15:47:00;3.35;;;1.10;;
75220;SDS011;63802;53.232;6.570;2023-03-14T15:49:26;6.72;;;1.00;;
75220;SDS011;63802;53.232;6.570;2023-03-14T15:51:52;4.40;;;0.98;;
75220;SDS011;63802;53.232;6.570;2023-03-14T15:54:18;4.38;;;1.13;;
75220;SDS011;63802;53.232;6.570;2023-03-14T15:56:44;7.15;;;1.25;;
75220;SDS011;63802;53.232;6.570;2023-03-14T15:59:09;5.88;;;1.50;;
75220;SDS011;63802;53.232;6.570;2023-03-14T16:01:35;5.40;;;0.80;;
75220;SDS011;63802;53.232;6.570;2023-03-14T16:04:00;4.68;;;1.17;;
75220;SDS011;63802;53.232;6.570;2023-03-14T16:06:27;3.45;;;0.90;;
75220;SDS011;63802;53.232;6.570;2023-03-14T16:08:55;3.60;;;0.82;;
75220;SDS011;63802;53.232;6.570;2023-03-14T16:11:21;3.00;;;0.70;;
75220;SDS011;63802;53.232;6.570;2023-03-14T16:13:47;4.70;;;1.10;;
75220;SDS011;63802;53.232;6.570;2023-03-14T16:16:13;7.38;;;1.13;;
75220;SDS011;63802;53.232;6.570;2023-03-14T16:18:39;5.38;;;1.08;;
75220;SDS011;63802;53.232;6.570;2023-03-14T16:21:06;7.38;;;1.95;;
75220;SDS011;63802;53.232;6.570;2023-03-14T16:23:33;3.20;;;0.85;;